sensor_id;sensor_type;location;lat;lon;timestamp;pressure;altitude;pressure_sealevel;temperature;humidity
79309;BME280;68767;53.078;7.386;2023-10-31T00:00:12;99705.56;;;11.63;100.00
79309;BME280;68767;53.078;7.386;2023-10-31T00:02:39;99697.69;;;11.54;100.00
79309;BME280;68767;53.078;7.386;2023-10-31T00:05:06;99691.94;;;11.56;100.00
79309;BME280;68767;53.078;7.386;2023-10-31T00:07:33;99695.06;;;11.58;100.00
79309;BME280;68767;53.078;7.386;2023-10-31T00:10:01;99693.78;;;11.51;100.00
79309;BME280;68767;53.078;7.386;2023-10-31T00:12:28;99697.06;;;11.61;100.00
79309;BME280;68767;53.078;7.386;2023-10-31T00:14:54;99702.03;;;11.59;100.00
79309;BME280;68767;53.078;7.386;2023-10-31T00:17:21;99694.63;;;11.56;100.00
79309;BME280;68767;53.078;7.386;2023-10-31T00:19:49;99693.59;;;11.60;100.00
79309;BME280;68767;53.078;7.386;2023-10-31T00:22:15;99698.19;;;11.60;100.00
79309;BME280;68767;53.078;7.386;2023-10-31T00:24:43;99687.06;;;11.61;100.00
79309;BME280;68767;53.078;7.386;2023-10-31T00:27:10;99686.66;;;11.59;100.00
79309;BME280;68767;53.078;7.386;2023-10-31T00:29:37;99692.66;;;11.52;100.00
79309;BME280;68767;53.078;7.386;2023-10-31T00:32:04;99690.44;;;11.58;100.00
79309;BME280;68767;53.078;7.386;2023-10-31T00:34:33;99690.38;;;11.54;100.00
79309;BME280;68767;53.078;7.386;2023-10-31T00:37:00;99688.56;;;11.59;100.00
79309;BME280;68767;53.078;7.386;2023-10-31T00:39:26;99687.50;;;11.63;100.00
79309;BME280;68767;53.078;7.386;2023-10-31T00:41:53;99676.09;;;11.50;100.00
79309;BME280;68767;53.078;7.386;2023-10-31T00:44:20;99673.47;;;11.54;100.00
79309;BME280;68767;53.078;7.386;2023-10-31T00:46:47;99681.13;;;11.52;100.00
79309;BME280;68767;53.078;7.386;2023-10-31T00:49:14;99674.97;;;11.51;100.00
79309;BME280;68767;53.078;7.386;2023-10-31T00:51:41;99673.88;;;11.56;100.00
79309;BME280;68767;53.078;7.386;2023-10-31T00:54:08;99671.63;;;11.58;100.00
79309;BME280;68767;53.078;7.386;2023-10-31T00:56:35;99675.75;;;11.52;100.00
79309;BME280;68767;53.078;7.386;2023-10-31T00:59:03;99673.03;;;11.52;100.00
79309;BME280;68767;53.078;7.386;2023-10-31T01:01:30;99681.13;;;11.52;100.00
79309;BME280;68767;53.078;7.386;2023-10-31T01:03:57;99674.63;;;11.37;100.00
79309;BME280;68767;53.078;7.386;2023-10-31T01:06:24;99678.91;;;11.58;100.00
79309;BME280;68767;53.078;7.386;2023-10-31T01:08:51;99670.56;;;11.63;100.00
79309;BME280;68767;53.078;7.386;2023-10-31T01:11:18;99676.75;;;11.63;100.00
79309;BME280;68767;53.078;7.386;2023-10-31T01:13:45;99672.50;;;11.62;100.00
79309;BME280;68767;53.078;7.386;2023-10-31T01:16:12;99668.59;;;11.60;100.00
79309;BME280;68767;53.078;7.386;2023-10-31T01:18:39;99673.47;;;11.54;100.00
79309;BME280;68767;53.078;7.386;2023-10-31T01:21:06;99665.81;;;11.56;100.00
79309;BME280;68767;53.078;7.386;2023-10-31T01:23:33;99659.09;;;11.46;100.00
79309;BME280;68767;53.078;7.386;2023-10-31T01:26:00;99649.69;;;11.56;100.00
79309;BME280;68767;53.078;7.386;2023-10-31T01:28:27;99646.22;;;11.56;100.00
79309;BME280;68767;53.078;7.386;2023-10-31T01:30:54;99646.22;;;11.56;100.00
79309;BME280;68767;53.078;7.386;2023-10-31T01:33:21;99643.09;;;11.53;100.00
79309;BME280;68767;53.078;7.386;2023-10-31T01:35:48;99649.63;;;11.52;100.00
79309;BME280;68767;53.078;7.386;2023-10-31T01:38:15;99643.16;;;11.57;100.00
79309;BME280;68767;53.078;7.386;2023-10-31T01:40:42;99646.22;;;11.56;100.00
79309;BME280;68767;53.078;7.386;2023-10-31T01:43:09;99647.84;;;11.60;100.00
79309;BME280;68767;53.078;7.386;2023-10-31T01:45:36;99644.03;;;11.61;100.00
79309;BME280;68767;53.078;7.386;2023-10-31T01:48:04;99641.69;;;11.60;100.00
79309;BME280;68767;53.078;7.386;2023-10-31T01:50:31;99635.88;;;11.58;100.00
79309;BME280;68767;53.078;7.386;2023-10-31T01:52:58;99637.47;;;11.59;100.00
79309;BME280;68767;53.078;7.386;2023-10-31T01:55:25;99627.38;;;11.56;100.00
79309;BME280;68767;53.078;7.386;2023-10-31T01:57:54;99626.69;;;11.59;100.00
79309;BME280;68767;53.078;7.386;2023-10-31T02:00:22;99613.94;;;11.56;100.00
79309;BME280;68767;53.078;7.386;2023-10-31T02:02:51;99615.94;;;11.59;100.00
79309;BME280;68767;53.078;7.386;2023-10-31T02:05:19;99610.81;;;11.53;100.00
79309;BME280;68767;53.078;7.386;2023-10-31T02:07:47;99607.16;;;11.62;100.00
79309;BME280;68767;53.078;7.386;2023-10-31T02:10:14;99612.22;;;11.47;100.00
79309;BME280;68767;53.078;7.386;2023-10-31T02:12:41;99599.97;;;11.50;100.00
79309;BME280;68767;53.078;7.386;2023-10-31T02:15:09;99596.19;;;11.51;100.00
79309;BME280;68767;53.078;7.386;2023-10-31T02:17:37;99599.66;;;11.51;100.00
79309;BME280;68767;53.078;7.386;2023-10-31T02:20:04;99588.94;;;11.55;100.00
79309;BME280;68767;53.078;7.386;2023-10-31T02:22:31;99582.72;;;11.51;100.00
79309;BME280;68767;53.078;7.386;2023-10-31T02:24:58;99590.03;;;11.50;100.00
79309;BME280;68767;53.078;7.386;2023-10-31T02:27:25;99595.03;;;11.52;100.00
79309;BME280;68767;53.078;7.386;2023-10-31T02:29:52;99594.28;;;11.51;100.00
79309;BME280;68767;53.078;7.386;2023-10-31T02:32:19;99586.63;;;11.53;100.00
79309;BME280;68767;53.078;7.386;2023-10-31T02:34:46;99597.03;;;11.55;100.00
79309;BME280;68767;53.078;7.386;2023-10-31T02:37:13;99588.88;;;11.51;100.00
79309;BME280;68767;53.078;7.386;2023-10-31T02:39:40;99582.00;;;11.54;100.00
79309;BME280;68767;53.078;7.386;2023-10-31T02:42:07;99578.56;;;11.53;100.00
79309;BME280;68767;53.078;7.386;2023-10-31T02:44:34;99587.03;;;11.56;100.00
79309;BME280;68767;53.078;7.386;2023-10-31T02:47:01;99602.50;;;11.59;100.00
79309;BME280;68767;53.078;7.386;2023-10-31T02:49:28;99603.44;;;11.31;100.00
79309;BME280;68767;53.078;7.386;2023-10-31T02:51:55;99596.47;;;11.11;100.00
79309;BME280;68767;53.078;7.386;2023-10-31T02:54:22;99598.78;;;10.93;100.00
79309;BME280;68767;53.078;7.386;2023-10-31T02:56:49;99609.78;;;10.56;100.00
79309;BME280;68767;53.078;7.386;2023-10-31T02:59:16;99605.81;;;10.34;100.00
79309;BME280;68767;53.078;7.386;2023-10-31T03:01:43;99611.22;;;10.22;100.00
79309;BME280;68767;53.078;7.386;2023-10-31T03:04:13;99606.41;;;10.16;100.00
79309;BME280;68767;53.078;7.386;2023-10-31T03:06:40;99617.75;;;10.09;100.00
79309;BME280;68767;53.078;7.386;2023-10-31T03:09:10;99610.13;;;9.95;100.00
79309;BME280;68767;53.078;7.386;2023-10-31T03:11:36;99607.03;;;9.81;100.00
79309;BME280;68767;53.078;7.386;2023-10-31T03:14:04;99607.03;;;9.81;100.00
79309;BME280;68767;53.078;7.386;2023-10-31T03:16:31;99615.00;;;9.77;100.00
79309;BME280;68767;53.078;7.386;2023-10-31T03:19:01;99624.84;;;9.73;100.00
79309;BME280;68767;53.078;7.386;2023-10-31T03:21:28;99616.25;;;9.68;100.00
79309;BME280;68767;53.078;7.386;2023-10-31T03:23:55;99621.84;;;9.63;100.00
79309;BME280;68767;53.078;7.386;2023-10-31T03:26:22;99634.56;;;9.66;100.00
79309;BME280;68767;53.078;7.386;2023-10-31T03:28:49;99626.19;;;9.67;100.00
79309;BME280;68767;53.078;7.386;2023-10-31T03:31:16;99630.91;;;9.58;100.00
79309;BME280;68767;53.078;7.386;2023-10-31T03:33:44;99633.16;;;9.56;100.00
79309;BME280;68767;53.078;7.386;2023-10-31T03:36:11;99638.84;;;9.54;100.00
79309;BME280;68767;53.078;7.386;2023-10-31T03:38:38;99632.94;;;9.49;100.00
79309;BME280;68767;53.078;7.386;2023-10-31T03:41:06;99642.88;;;9.48;100.00
79309;BME280;68767;53.078;7.386;2023-10-31T03:43:33;99651.72;;;9.49;100.00
79309;BME280;68767;53.078;7.386;2023-10-31T03:46:00;99667.66;;;9.57;100.00
79309;BME280;68767;53.078;7.386;2023-10-31T03:48:28;99661.66;;;9.61;100.00
79309;BME280;68767;53.078;7.386;2023-10-31T03:50:55;99677.13;;;9.67;100.00
79309;BME280;68767;53.078;7.386;2023-10-31T03:53:25;99680.28;;;9.69;100.00
79309;BME280;68767;53.078;7.386;2023-10-31T03:55:52;99691.66;;;9.66;100.00
79309;BME280;68767;53.078;7.386;2023-10-31T03:58:19;99699.63;;;9.63;100.00
79309;BME280;68767;53.078;7.386;2023-10-31T04:00:46;99700.97;;;9.56;100.00
79309;BME280;68767;53.078;7.386;2023-10-31T04:03:14;99711.69;;;9.56;100.00
79309;BME280;68767;53.078;7.386;2023-10-31T04:05:41;99717.41;;;9.55;100.00
79309;BME280;68767;53.078;7.386;2023-10-31T04:08:07;99717.75;;;9.53;100.00
79309;BME280;68767;53.078;7.386;2023-10-31T04:10:35;99728.81;;;9.52;100.00
79309;BME280;68767;53.078;7.386;2023-10-31T04:13:02;99730.69;;;9.51;100.00
79309;BME280;68767;53.078;7.386;2023-10-31T04:15:29;99734.25;;;9.55;100.00
79309;BME280;68767;53.078;7.386;2023-10-31T04:17:56;99731.94;;;9.54;100.00
79309;BME280;68767;53.078;7.386;2023-10-31T04:20:24;99736.50;;;9.53;100.00
79309;BME280;68767;53.078;7.386;2023-10-31T04:22:51;99749.56;;;9.55;100.00
79309;BME280;68767;53.078;7.386;2023-10-31T04:25:18;99745.97;;;9.51;100.00
79309;BME280;68767;53.078;7.386;2023-10-31T04:27:45;99756.59;;;9.47;100.00
79309;BME280;68767;53.078;7.386;2023-10-31T04:30:12;99763.09;;;9.46;100.00
79309;BME280;68767;53.078;7.386;2023-10-31T04:32:40;99754.38;;;9.49;100.00
79309;BME280;68767;53.078;7.386;2023-10-31T04:35:08;99765.53;;;9.51;100.00
79309;BME280;68767;53.078;7.386;2023-10-31T04:37:35;99776.50;;;9.46;100.00
79309;BME280;68767;53.078;7.386;2023-10-31T04:40:03;99770.44;;;9.49;100.00
79309;BME280;68767;53.078;7.386;2023-10-31T04:42:31;99769.34;;;9.50;100.00
79309;BME280;68767;53.078;7.386;2023-10-31T04:44:59;99786.88;;;9.48;100.00
79309;BME280;68767;53.078;7.386;2023-10-31T04:47:26;99792.69;;;9.50;100.00
79309;BME280;68767;53.078;7.386;2023-10-31T04:49:54;99798.03;;;9.50;100.00
79309;BME280;68767;53.078;7.386;2023-10-31T04:52:21;99803.97;;;9.55;100.00
79309;BME280;68767;53.078;7.386;2023-10-31T04:54:49;99804.66;;;9.52;100.00
79309;BME280;68767;53.078;7.386;2023-10-31T04:57:16;99826.41;;;9.51;100.00
79309;BME280;68767;53.078;7.386;2023-10-31T04:59:43;99824.75;;;9.46;100.00
79309;BME280;68767;53.078;7.386;2023-10-31T05:02:11;99830.44;;;9.45;100.00
79309;BME280;68767;53.078;7.386;2023-10-31T05:04:38;99829.69;;;9.44;100.00
79309;BME280;68767;53.078;7.386;2023-10-31T05:07:06;99838.03;;;9.43;100.00
79309;BME280;68767;53.078;7.386;2023-10-31T05:09:33;99847.31;;;9.45;100.00
79309;BME280;68767;53.078;7.386;2023-10-31T05:12:01;99845.28;;;9.42;100.00
79309;BME280;68767;53.078;7.386;2023-10-31T05:14:28;99845.97;;;9.39;100.00
79309;BME280;68767;53.078;7.386;2023-10-31T05:16:55;99843.81;;;9.33;100.00
79309;BME280;68767;53.078;7.386;2023-10-31T05:19:22;99852.00;;;9.36;100.00
79309;BME280;68767;53.078;7.386;2023-10-31T05:21:49;99866.97;;;9.37;100.00
79309;BME280;68767;53.078;7.386;2023-10-31T05:24:15;99857.22;;;9.33;100.00
79309;BME280;68767;53.078;7.386;2023-10-31T05:26:42;99867.75;;;9.38;100.00
79309;BME280;68767;53.078;7.386;2023-10-31T05:29:11;99865.06;;;9.38;100.00
79309;BME280;68767;53.078;7.386;2023-10-31T05:31:38;99872.78;;;9.39;100.00
79309;BME280;68767;53.078;7.386;2023-10-31T05:34:05;99871.22;;;9.38;100.00
79309;BME280;68767;53.078;7.386;2023-10-31T05:36:32;99880.03;;;9.39;100.00
79309;BME280;68767;53.078;7.386;2023-10-31T05:38:59;99890.06;;;9.42;100.00
79309;BME280;68767;53.078;7.386;2023-10-31T05:41:25;99896.56;;;9.41;100.00
79309;BME280;68767;53.078;7.386;2023-10-31T05:43:52;99893.09;;;9.40;100.00
79309;BME280;68767;53.078;7.386;2023-10-31T05:46:19;99896.13;;;9.39;100.00
79309;BME280;68767;53.078;7.386;2023-10-31T05:48:47;99902.59;;;9.38;100.00
79309;BME280;68767;53.078;7.386;2023-10-31T05:51:16;99905.72;;;9.40;100.00
79309;BME280;68767;53.078;7.386;2023-10-31T05:53:45;99911.75;;;9.37;100.00
79309;BME280;68767;53.078;7.386;2023-10-31T05:56:15;99913.31;;;9.38;100.00
79309;BME280;68767;53.078;7.386;2023-10-31T05:58:42;99913.97;;;9.35;100.00
79309;BME280;68767;53.078;7.386;2023-10-31T06:01:09;99915.56;;;9.36;100.00
79309;BME280;68767;53.078;7.386;2023-10-31T06:03:37;99923.25;;;9.37;100.00
79309;BME280;68767;53.078;7.386;2023-10-31T06:06:05;99920.44;;;9.34;100.00
79309;BME280;68767;53.078;7.386;2023-10-31T06:08:32;99940.13;;;9.38;100.00
79309;BME280;68767;53.078;7.386;2023-10-31T06:11:00;99937.63;;;9.33;100.00
79309;BME280;68767;53.078;7.386;2023-10-31T06:13:27;99939.97;;;9.34;100.00
79309;BME280;68767;53.078;7.386;2023-10-31T06:15:55;99942.03;;;9.37;100.00
79309;BME280;68767;53.078;7.386;2023-10-31T06:18:27;99954.50;;;9.33;100.00
79309;BME280;68767;53.078;7.386;2023-10-31T06:20:55;99949.91;;;9.34;100.00
79309;BME280;68767;53.078;7.386;2023-10-31T06:23:22;99955.94;;;9.31;100.00
79309;BME280;68767;53.078;7.386;2023-10-31T06:25:49;99949.47;;;9.32;100.00
79309;BME280;68767;53.078;7.386;2023-10-31T06:28:16;99959.88;;;9.33;100.00
79309;BME280;68767;53.078;7.386;2023-10-31T06:30:48;99947.56;;;9.32;100.00
79309;BME280;68767;53.078;7.386;2023-10-31T06:33:15;99964.88;;;9.35;100.00
79309;BME280;68767;53.078;7.386;2023-10-31T06:35:43;99967.56;;;9.35;100.00
79309;BME280;68767;53.078;7.386;2023-10-31T06:38:10;99966.16;;;9.37;100.00
79309;BME280;68767;53.078;7.386;2023-10-31T06:40:37;99970.25;;;9.35;100.00
79309;BME280;68767;53.078;7.386;2023-10-31T06:43:04;99969.94;;;9.36;100.00
79309;BME280;68767;53.078;7.386;2023-10-31T06:45:31;99979.03;;;9.44;100.00
79309;BME280;68767;53.078;7.386;2023-10-31T06:47:59;99973.97;;;9.42;100.00
79309;BME280;68767;53.078;7.386;2023-10-31T06:50:26;99983.91;;;9.42;100.00
79309;BME280;68767;53.078;7.386;2023-10-31T06:52:55;99981.56;;;9.40;100.00
79309;BME280;68767;53.078;7.386;2023-10-31T06:55:22;99979.22;;;9.39;100.00
79309;BME280;68767;53.078;7.386;2023-10-31T06:57:49;99989.16;;;9.38;100.00
79309;BME280;68767;53.078;7.386;2023-10-31T07:00:16;99984.25;;;9.40;100.00
79309;BME280;68767;53.078;7.386;2023-10-31T07:02:43;99994.00;;;9.45;100.00
79309;BME280;68767;53.078;7.386;2023-10-31T07:05:11;99994.00;;;9.45;100.00
79309;BME280;68767;53.078;7.386;2023-10-31T07:07:38;99993.22;;;9.44;100.00
79309;BME280;68767;53.078;7.386;2023-10-31T07:10:06;99996.00;;;9.48;100.00
79309;BME280;68767;53.078;7.386;2023-10-31T07:12:33;100001.03;;;9.49;100.00
79309;BME280;68767;53.078;7.386;2023-10-31T07:15:00;99999.13;;;9.50;100.00
79309;BME280;68767;53.078;7.386;2023-10-31T07:17:27;100001.47;;;9.51;100.00
79309;BME280;68767;53.078;7.386;2023-10-31T07:19:54;100014.88;;;9.51;100.00
79309;BME280;68767;53.078;7.386;2023-10-31T07:22:22;100011.31;;;9.47;100.00
79309;BME280;68767;53.078;7.386;2023-10-31T07:24:52;100011.31;;;9.47;100.00
79309;BME280;68767;53.078;7.386;2023-10-31T07:27:19;100017.13;;;9.49;100.00
79309;BME280;68767;53.078;7.386;2023-10-31T07:29:46;100011.75;;;9.49;100.00
79309;BME280;68767;53.078;7.386;2023-10-31T07:32:13;100020.56;;;9.50;100.00
79309;BME280;68767;53.078;7.386;2023-10-31T07:34:41;100030.84;;;9.48;100.00
79309;BME280;68767;53.078;7.386;2023-10-31T07:37:11;100025.94;;;9.50;100.00
79309;BME280;68767;53.078;7.386;2023-10-31T07:39:39;100025.38;;;9.44;100.00
79309;BME280;68767;53.078;7.386;2023-10-31T07:42:06;100024.34;;;9.37;100.00
79309;BME280;68767;53.078;7.386;2023-10-31T07:44:34;100030.94;;;9.39;100.00
79309;BME280;68767;53.078;7.386;2023-10-31T07:47:01;100029.81;;;9.40;100.00
79309;BME280;68767;53.078;7.386;2023-10-31T07:49:29;100029.47;;;9.42;100.00
79309;BME280;68767;53.078;7.386;2023-10-31T07:51:56;100032.31;;;9.45;100.00
79309;BME280;68767;53.078;7.386;2023-10-31T07:54:23;100024.72;;;9.47;100.00
79309;BME280;68767;53.078;7.386;2023-10-31T07:56:50;100025.38;;;9.44;100.00
79309;BME280;68767;53.078;7.386;2023-10-31T07:59:17;100033.53;;;9.48;100.00
79309;BME280;68767;53.078;7.386;2023-10-31T08:01:44;100034.78;;;9.50;100.00
79309;BME280;68767;53.078;7.386;2023-10-31T08:04:11;100036.34;;;9.51;100.00
79309;BME280;68767;53.078;7.386;2023-10-31T08:06:38;100029.09;;;9.52;100.00
79309;BME280;68767;53.078;7.386;2023-10-31T08:09:05;100039.75;;;9.61;100.00
79309;BME280;68767;53.078;7.386;2023-10-31T08:11:35;100041.31;;;9.62;100.00
79309;BME280;68767;53.078;7.386;2023-10-31T08:14:02;100035.16;;;9.61;100.00
79309;BME280;68767;53.078;7.386;2023-10-31T08:16:29;100040.44;;;9.70;100.00
79309;BME280;68767;53.078;7.386;2023-10-31T08:18:57;100035.09;;;9.70;100.00
79309;BME280;68767;53.078;7.386;2023-10-31T08:21:24;100039.91;;;9.76;100.00
79309;BME280;68767;53.078;7.386;2023-10-31T08:23:51;100037.69;;;9.78;100.00
79309;BME280;68767;53.078;7.386;2023-10-31T08:26:18;100040.91;;;9.84;100.00
79309;BME280;68767;53.078;7.386;2023-10-31T08:28:45;100044.38;;;9.84;100.00
79309;BME280;68767;53.078;7.386;2023-10-31T08:31:13;100046.66;;;9.95;100.00
79309;BME280;68767;53.078;7.386;2023-10-31T08:33:40;100047.44;;;9.95;100.00
79309;BME280;68767;53.078;7.386;2023-10-31T08:36:07;100045.41;;;9.92;100.00
79309;BME280;68767;53.078;7.386;2023-10-31T08:38:34;100052.94;;;9.99;100.00
79309;BME280;68767;53.078;7.386;2023-10-31T08:41:02;100062.69;;;10.03;100.00
79309;BME280;68767;53.078;7.386;2023-10-31T08:43:33;100054.53;;;10.12;100.00
79309;BME280;68767;53.078;7.386;2023-10-31T08:46:08;100068.41;;;10.14;100.00
79309;BME280;68767;53.078;7.386;2023-10-31T08:48:40;100067.28;;;10.15;100.00
79309;BME280;68767;53.078;7.386;2023-10-31T08:51:07;100074.78;;;10.22;100.00
79309;BME280;68767;53.078;7.386;2023-10-31T08:53:34;100071.31;;;10.21;100.00
79309;BME280;68767;53.078;7.386;2023-10-31T08:56:01;100072.81;;;10.31;100.00
79309;BME280;68767;53.078;7.386;2023-10-31T08:58:28;100069.78;;;10.32;100.00
79309;BME280;68767;53.078;7.386;2023-10-31T09:00:56;100077.50;;;10.34;100.00
79309;BME280;68767;53.078;7.386;2023-10-31T09:03:24;100084.91;;;10.37;100.00
79309;BME280;68767;53.078;7.386;2023-10-31T09:05:53;100082.56;;;10.35;100.00
79309;BME280;68767;53.078;7.386;2023-10-31T09:08:20;100089.16;;;10.38;100.00
79309;BME280;68767;53.078;7.386;2023-10-31T09:10:47;100093.06;;;10.40;100.00
79309;BME280;68767;53.078;7.386;2023-10-31T09:13:14;100098.25;;;10.46;100.00
79309;BME280;68767;53.078;7.386;2023-10-31T09:15:41;100094.63;;;10.41;100.00
79309;BME280;68767;53.078;7.386;2023-10-31T09:18:09;100093.66;;;10.46;100.00
79309;BME280;68767;53.078;7.386;2023-10-31T09:20:36;100100.38;;;10.52;100.00
79309;BME280;68767;53.078;7.386;2023-10-31T09:23:03;100103.84;;;10.53;100.00
79309;BME280;68767;53.078;7.386;2023-10-31T09:25:31;100112.81;;;10.69;100.00
79309;BME280;68767;53.078;7.386;2023-10-31T09:28:00;100110.38;;;10.76;100.00
79309;BME280;68767;53.078;7.386;2023-10-31T09:30:27;100121.13;;;10.76;100.00
79309;BME280;68767;53.078;7.386;2023-10-31T09:32:54;100122.00;;;10.80;100.00
79309;BME280;68767;53.078;7.386;2023-10-31T09:35:22;100128.25;;;10.72;100.00
79309;BME280;68767;53.078;7.386;2023-10-31T09:37:49;100130.50;;;10.70;100.00
79309;BME280;68767;53.078;7.386;2023-10-31T09:40:16;100135.53;;;10.72;100.00
79309;BME280;68767;53.078;7.386;2023-10-31T09:42:45;100129.28;;;10.67;100.00
79309;BME280;68767;53.078;7.386;2023-10-31T09:45:13;100135.53;;;10.59;100.00
79309;BME280;68767;53.078;7.386;2023-10-31T09:47:40;100136.75;;;10.62;100.00
79309;BME280;68767;53.078;7.386;2023-10-31T09:50:08;100143.03;;;10.66;100.00
79309;BME280;68767;53.078;7.386;2023-10-31T09:52:37;100148.19;;;10.71;100.00
79309;BME280;68767;53.078;7.386;2023-10-31T09:55:04;100154.44;;;10.75;100.00
79309;BME280;68767;53.078;7.386;2023-10-31T09:57:34;100159.72;;;10.84;100.00
79309;BME280;68767;53.078;7.386;2023-10-31T10:00:01;100163.88;;;10.93;100.00
79309;BME280;68767;53.078;7.386;2023-10-31T10:02:35;100162.09;;;10.97;100.00
79309;BME280;68767;53.078;7.386;2023-10-31T10:05:04;100174.06;;;11.00;100.00
79309;BME280;68767;53.078;7.386;2023-10-31T10:07:34;100179.22;;;11.05;100.00
79309;BME280;68767;53.078;7.386;2023-10-31T10:10:01;100165.66;;;11.14;100.00
79309;BME280;68767;53.078;7.386;2023-10-31T10:12:29;100189.53;;;11.15;100.00
79309;BME280;68767;53.078;7.386;2023-10-31T10:14:57;100192.91;;;11.12;100.00
79309;BME280;68767;53.078;7.386;2023-10-31T10:17:25;100217.44;;;11.11;100.00
79309;BME280;68767;53.078;7.386;2023-10-31T10:20:12;100215.28;;;11.04;100.00
79309;BME280;68767;53.078;7.386;2023-10-31T10:22:41;100230.28;;;11.05;100.00
79309;BME280;68767;53.078;7.386;2023-10-31T10:25:16;100234.88;;;11.05;100.00
79309;BME280;68767;53.078;7.386;2023-10-31T10:27:45;100239.59;;;11.08;100.00
79309;BME280;68767;53.078;7.386;2023-10-31T10:30:14;100235.13;;;11.12;100.00
79309;BME280;68767;53.078;7.386;2023-10-31T10:32:41;100242.16;;;11.04;100.00
79309;BME280;68767;53.078;7.386;2023-10-31T10:35:09;100249.69;;;11.11;100.00
79309;BME280;68767;53.078;7.386;2023-10-31T10:37:37;100246.19;;;10.98;100.00
79309;BME280;68767;53.078;7.386;2023-10-31T10:40:10;100269.00;;;10.92;100.00
79309;BME280;68767;53.078;7.386;2023-10-31T10:45:04;100267.91;;;10.93;100.00
79309;BME280;68767;53.078;7.386;2023-10-31T10:47:33;100268.25;;;11.04;100.00
79309;BME280;68767;53.078;7.386;2023-10-31T10:50:02;100272.28;;;10.97;100.00
79309;BME280;68767;53.078;7.386;2023-10-31T10:52:44;100283.78;;;10.86;100.00
79309;BME280;68767;53.078;7.386;2023-10-31T10:55:25;100276.19;;;10.88;100.00
79309;BME280;68767;53.078;7.386;2023-10-31T10:58:04;100283.25;;;10.92;100.00
79309;BME280;68767;53.078;7.386;2023-10-31T11:00:32;100291.13;;;11.10;100.00
79309;BME280;68767;53.078;7.386;2023-10-31T11:03:00;100292.28;;;11.45;100.00
79309;BME280;68767;53.078;7.386;2023-10-31T11:05:30;100291.72;;;11.52;100.00
79309;BME280;68767;53.078;7.386;2023-10-31T11:07:59;100289.94;;;11.44;100.00
79309;BME280;68767;53.078;7.386;2023-10-31T11:10:29;100289.72;;;11.61;100.00
79309;BME280;68767;53.078;7.386;2023-10-31T11:12:57;100286.34;;;11.64;100.00
79309;BME280;68767;53.078;7.386;2023-10-31T11:15:25;100288.38;;;11.67;100.00
79309;BME280;68767;53.078;7.386;2023-10-31T11:17:55;100294.31;;;11.61;100.00
79309;BME280;68767;53.078;7.386;2023-10-31T11:20:23;100298.44;;;11.58;100.00
79309;BME280;68767;53.078;7.386;2023-10-31T11:22:55;100297.44;;;11.63;100.00
79309;BME280;68767;53.078;7.386;2023-10-31T11:25:27;100293.19;;;11.62;100.00
79309;BME280;68767;53.078;7.386;2023-10-31T11:28:13;100297.25;;;11.80;100.00
79309;BME280;68767;53.078;7.386;2023-10-31T11:30:42;100292.84;;;11.75;100.00
79309;BME280;68767;53.078;7.386;2023-10-31T11:33:14;100286.47;;;11.80;100.00
79309;BME280;68767;53.078;7.386;2023-10-31T11:35:42;100293.97;;;11.87;100.00
79309;BME280;68767;53.078;7.386;2023-10-31T11:38:12;100294.72;;;11.99;100.00
79309;BME280;68767;53.078;7.386;2023-10-31T11:43:16;100298.09;;;12.08;100.00
79309;BME280;68767;53.078;7.386;2023-10-31T11:45:47;100295.34;;;12.33;100.00
79309;BME280;68767;53.078;7.386;2023-10-31T11:48:15;100300.91;;;12.40;100.00
79309;BME280;68767;53.078;7.386;2023-10-31T11:50:43;100316.56;;;12.34;100.00
79309;BME280;68767;53.078;7.386;2023-10-31T11:53:12;100318.75;;;12.45;100.00
79309;BME280;68767;53.078;7.386;2023-10-31T11:55:43;100313.38;;;12.45;100.00
79309;BME280;68767;53.078;7.386;2023-10-31T11:58:15;100311.94;;;12.35;100.00
79309;BME280;68767;53.078;7.386;2023-10-31T12:00:44;100317.47;;;12.26;100.00
79309;BME280;68767;53.078;7.386;2023-10-31T12:03:12;100319.53;;;12.17;100.00
79309;BME280;68767;53.078;7.386;2023-10-31T12:05:40;100320.09;;;11.98;100.00
79309;BME280;68767;53.078;7.386;2023-10-31T12:08:07;100318.75;;;12.04;100.00
79309;BME280;68767;53.078;7.386;2023-10-31T12:10:35;100323.81;;;11.94;100.00
79309;BME280;68767;53.078;7.386;2023-10-31T12:13:02;100331.63;;;11.74;100.00
79309;BME280;68767;53.078;7.386;2023-10-31T12:15:29;100337.13;;;11.53;100.00
79309;BME280;68767;53.078;7.386;2023-10-31T12:17:58;100349.66;;;11.37;100.00
79309;BME280;68767;53.078;7.386;2023-10-31T12:20:26;100355.56;;;11.31;100.00
79309;BME280;68767;53.078;7.386;2023-10-31T12:23:03;100352.75;;;11.15;100.00
79309;BME280;68767;53.078;7.386;2023-10-31T12:25:31;100358.50;;;11.25;100.00
79309;BME280;68767;53.078;7.386;2023-10-31T12:28:02;100365.88;;;11.29;100.00
79309;BME280;68767;53.078;7.386;2023-10-31T12:30:30;100372.28;;;11.36;100.00
79309;BME280;68767;53.078;7.386;2023-10-31T12:32:57;100373.19;;;11.28;100.00
79309;BME280;68767;53.078;7.386;2023-10-31T12:35:26;100389.06;;;11.33;100.00
79309;BME280;68767;53.078;7.386;2023-10-31T12:37:54;100400.97;;;11.32;100.00
79309;BME280;68767;53.078;7.386;2023-10-31T12:40:21;100403.66;;;11.32;100.00
79309;BME280;68767;53.078;7.386;2023-10-31T12:42:50;100405.00;;;11.26;100.00
79309;BME280;68767;53.078;7.386;2023-10-31T12:45:20;100403.38;;;11.13;100.00
79309;BME280;68767;53.078;7.386;2023-10-31T12:48:07;100400.88;;;11.08;100.00
79309;BME280;68767;53.078;7.386;2023-10-31T12:50:36;100418.47;;;11.05;100.00
79309;BME280;68767;53.078;7.386;2023-10-31T12:53:10;100420.81;;;11.07;100.00
79309;BME280;68767;53.078;7.386;2023-10-31T12:55:40;100418.28;;;11.10;100.00
79309;BME280;68767;53.078;7.386;2023-10-31T12:58:08;100421.78;;;11.23;100.00